Time;durP1;ratioP1;P1;durP2;ratioP2;P2;SDS_P1;SDS_P2;PMS_P1;PMS_P2;Temp;Humidity;BMP_temperature;BMP_pressure;BME280_temperature;BME280_humidity;BME280_pressure;Samples;Min_cycle;Max_cycle;Signal;HPM_P1;HPM_P2
2023/01/16 00:01:25;;;;;;;4.25;1.15;;;8.60;72.30;;;;;;5115104;28;20122;-64
2023/01/16 00:03:50;;;;;;;4.20;1.88;;;8.60;72.40;;;;;;5105739;28;20058;-64
2023/01/16 00:06:16;;;;;;;2.83;1.15;;;8.60;72.50;;;;;;5099693;28;20054;-65
2023/01/16 00:08:43;;;;;;;5.43;1.55;;;8.60;72.70;;;;;;5110596;28;20028;-64
2023/01/16 00:11:09;;;;;;;2.97;1.30;;;8.60;72.70;;;;;;5115235;28;20055;-64
2023/01/16 00:13:36;;;;;;;5.78;1.80;;;8.60;72.80;;;;;;5113301;28;20082;-65
2023/01/16 00:16:03;;;;;;;6.10;1.60;;;8.60;72.90;;;;;;5097542;28;20077;-65
2023/01/16 00:18:29;;;;;;;4.57;1.25;;;8.60;73.00;;;;;;5106937;28;20019;-63
2023/01/16 00:20:54;;;;;;;3.15;1.50;;;8.60;73.10;;;;;;5097115;28;20027;-63
2023/01/16 00:23:20;;;;;;;3.00;1.13;;;8.60;73.20;;;;;;5106101;28;20085;-63
2023/01/16 00:25:46;;;;;;;3.42;1.33;;;8.60;73.30;;;;;;5110208;28;20020;-64
2023/01/16 00:28:13;;;;;;;4.35;1.35;;;8.50;73.30;;;;;;5113895;28;20092;-64
2023/01/16 00:30:39;;;;;;;4.43;1.45;;;8.60;73.40;;;;;;5104758;28;20036;-64
2023/01/16 00:33:05;;;;;;;3.83;1.42;;;8.50;73.60;;;;;;5113989;28;20116;-64
2023/01/16 00:35:32;;;;;;;3.00;1.30;;;8.50;73.70;;;;;;5114572;28;20039;-64
2023/01/16 00:37:58;;;;;;;4.15;1.60;;;8.50;73.80;;;;;;5113987;28;20157;-63
2023/01/16 00:40:24;;;;;;;4.35;2.00;;;8.50;73.80;;;;;;5111218;28;20468;-63
2023/01/16 00:42:50;;;;;;;5.10;2.00;;;8.50;73.90;;;;;;5105602;28;20020;-64
2023/01/16 00:45:16;;;;;;;5.15;2.15;;;8.50;73.90;;;;;;5110695;28;20352;-63
2023/01/16 00:47:42;;;;;;;5.35;2.67;;;8.50;73.90;;;;;;5113029;28;20360;-64
2023/01/16 00:50:08;;;;;;;6.75;3.05;;;8.50;73.90;;;;;;5096800;28;20035;-64
2023/01/16 00:52:34;;;;;;;5.93;2.90;;;8.50;73.90;;;;;;5101592;28;20032;-65
2023/01/16 00:54:59;;;;;;;6.03;2.95;;;8.50;73.90;;;;;;5106609;28;20337;-63
2023/01/16 00:57:26;;;;;;;6.22;2.53;;;8.50;74.00;;;;;;5100788;28;20053;-64
2023/01/16 00:59:52;;;;;;;6.30;3.63;;;8.50;74.10;;;;;;5095972;28;20024;-64
2023/01/16 01:02:18;;;;;;;6.57;3.65;;;8.50;74.10;;;;;;5106502;28;20431;-64
2023/01/16 01:04:44;;;;;;;6.95;3.90;;;8.50;74.10;;;;;;5107561;28;20039;-64
2023/01/16 01:07:09;;;;;;;6.55;3.63;;;8.40;74.20;;;;;;5112351;28;20027;-64
2023/01/16 01:09:35;;;;;;;7.13;3.83;;;8.40;74.20;;;;;;5105729;28;20059;-64
2023/01/16 01:12:01;;;;;;;6.93;4.10;;;8.40;74.20;;;;;;5087716;28;20032;-64
2023/01/16 01:14:27;;;;;;;6.65;3.92;;;8.40;74.30;;;;;;5107721;28;20020;-64
2023/01/16 01:16:53;;;;;;;7.95;3.92;;;8.40;74.30;;;;;;5113619;28;20372;-64
2023/01/16 01:19:19;;;;;;;6.30;3.50;;;8.40;74.30;;;;;;5106185;28;20019;-64
2023/01/16 01:21:44;;;;;;;8.45;3.95;;;8.40;74.10;;;;;;5113687;28;20020;-64
2023/01/16 01:24:10;;;;;;;6.43;3.97;;;8.40;74.10;;;;;;5111478;28;20019;-64
2023/01/16 01:26:36;;;;;;;6.55;4.05;;;8.40;74.10;;;;;;5113961;28;20489;-64
2023/01/16 01:29:02;;;;;;;7.38;4.32;;;8.40;74.00;;;;;;5113096;28;20035;-64
2023/01/16 01:31:28;;;;;;;7.57;4.40;;;8.40;74.00;;;;;;5113744;28;20089;-64
2023/01/16 01:33:53;;;;;;;6.97;3.47;;;8.40;74.10;;;;;;5112411;28;20032;-64
2023/01/16 01:36:19;;;;;;;7.30;3.33;;;8.40;74.20;;;;;;5096021;28;20048;-64
2023/01/16 01:38:49;;;;;;;6.57;3.53;;;8.30;74.20;;;;;;5113241;28;20024;-64
2023/01/16 01:41:15;;;;;;;6.60;3.55;;;8.30;74.20;;;;;;5113315;28;20452;-64
2023/01/16 01:43:56;;;;;;;7.07;3.00;;;8.30;74.30;;;;;;5113154;28;20032;-64
2023/01/16 01:46:35;;;;;;;5.10;2.78;;;8.30;74.40;;;;;;5110862;28;20035;-64
2023/01/16 01:49:23;;;;;;;5.85;2.85;;;8.30;74.50;;;;;;5104249;28;20028;-63
2023/01/16 01:51:51;;;;;;;5.68;2.90;;;8.30;74.50;;;;;;5110125;28;20024;-63
2023/01/16 01:54:26;;;;;;;7.22;3.05;;;8.30;74.50;;;;;;5099273;28;20032;-63
2023/01/16 01:56:59;;;;;;;7.53;3.03;;;8.30;74.50;;;;;;5109105;28;20024;-64
2023/01/16 01:59:29;;;;;;;8.05;3.00;;;8.30;74.60;;;;;;5109364;28;20153;-64
2023/01/16 02:01:56;;;;;;;7.78;3.00;;;8.30;74.60;;;;;;5114120;28;20123;-64
2023/01/16 02:04:30;;;;;;;7.80;2.58;;;8.30;74.60;;;;;;5112756;28;20063;-64
2023/01/16 02:07:03;;;;;;;6.72;2.65;;;8.30;74.60;;;;;;5128765;27;20377;-64
2023/01/16 02:09:29;;;;;;;5.13;2.00;;;8.30;74.60;;;;;;5109015;28;20032;-63
2023/01/16 02:12:01;;;;;;;5.47;1.80;;;8.30;74.60;;;;;;5109913;28;20038;-63
2023/01/16 02:14:30;;;;;;;5.40;2.13;;;8.30;74.60;;;;;;5106935;28;20031;-65
2023/01/16 02:20:14;;;;;;;4.72;2.00;;;8.30;74.60;;;;;;5113036;28;20028;-63
2023/01/16 02:23:10;;;;;;;4.82;1.60;;;8.30;74.50;;;;;;5101556;28;20468;-63
2023/01/16 02:25:41;;;;;;;6.35;2.20;;;8.30;74.40;;;;;;5109873;28;20039;-63
2023/01/16 02:28:25;;;;;;;5.85;1.70;;;8.30;74.40;;;;;;5102441;28;20032;-63
2023/01/16 02:31:15;;;;;;;4.90;1.40;;;8.30;74.30;;;;;;5113926;28;20047;-63
2023/01/16 02:34:14;;;;;;;4.47;1.60;;;8.30;74.30;;;;;;5129834;27;20049;-63
2023/01/16 02:37:01;;;;;;;4.78;1.40;;;8.20;74.20;;;;;;5098739;27;20047;-64
2023/01/16 02:39:51;;;;;;;8.05;1.73;;;8.20;74.30;;;;;;5116155;28;20359;-63
2023/01/16 02:42:38;;;;;;;5.78;1.35;;;8.20;74.20;;;;;;5114354;28;20019;-63
2023/01/16 02:45:39;;;;;;;5.60;1.52;;;8.20;74.30;;;;;;5117669;28;20035;-64
2023/01/16 02:48:28;;;;;;;6.15;1.67;;;8.20;74.40;;;;;;5113217;28;20020;-63
2023/01/16 02:51:17;;;;;;;4.43;1.38;;;8.10;74.40;;;;;;5093479;28;20505;-64
2023/01/16 02:54:10;;;;;;;7.65;1.90;;;8.10;74.50;;;;;;5114510;28;20028;-64
2023/01/16 02:56:48;;;;;;;6.05;1.55;;;8.10;74.50;;;;;;5115541;28;20031;-63
2023/01/16 02:59:16;;;;;;;6.20;1.60;;;8.10;74.50;;;;;;5115219;28;20172;-64
2023/01/16 03:01:45;;;;;;;4.30;1.27;;;8.00;74.50;;;;;;5114982;28;20080;-63
2023/01/16 03:04:36;;;;;;;5.10;1.75;;;8.00;74.50;;;;;;5113442;28;20040;-63
2023/01/16 03:07:01;;;;;;;4.22;1.40;;;8.00;74.50;;;;;;5113992;28;20451;-63
2023/01/16 03:09:38;;;;;;;5.20;1.70;;;7.90;74.60;;;;;;5115195;28;20024;-63
2023/01/16 03:12:12;;;;;;;4.53;1.50;;;7.90;74.60;;;;;;5116049;28;20384;-63
2023/01/16 03:14:53;;;;;;;5.55;1.38;;;7.90;74.60;;;;;;5113859;28;20489;-64
2023/01/16 03:17:44;;;;;;;4.05;1.30;;;7.80;74.60;;;;;;5103029;28;20373;-63
2023/01/16 03:20:13;;;;;;;5.90;1.40;;;7.80;74.60;;;;;;5109276;28;20032;-64
2023/01/16 03:22:52;;;;;;;5.50;1.67;;;7.80;74.70;;;;;;5115220;28;20032;-63
2023/01/16 03:26:03;;;;;;;4.20;1.30;;;7.80;74.70;;;;;;5116985;28;20067;-64
2023/01/16 03:28:38;;;;;;;5.10;1.50;;;7.80;74.60;;;;;;5059705;28;20037;-63
2023/01/16 03:31:14;;;;;;;5.93;1.77;;;7.80;74.70;;;;;;5061274;28;20080;-63
2023/01/16 03:34:08;;;;;;;8.18;1.73;;;7.70;74.60;;;;;;5102816;27;20044;-64
2023/01/16 03:36:56;;;;;;;7.18;1.60;;;7.70;74.60;;;;;;5114688;28;20035;-64
2023/01/16 03:39:26;;;;;;;3.30;1.20;;;7.70;74.70;;;;;;5115736;28;20095;-64
2023/01/16 03:41:55;;;;;;;5.40;1.70;;;7.70;74.70;;;;;;5114233;28;20096;-63
2023/01/16 03:44:28;;;;;;;7.80;1.60;;;7.60;75.30;;;;;;5109106;28;20031;-64
2023/01/16 03:46:55;;;;;;;7.60;1.63;;;7.60;74.70;;;;;;5114255;28;20031;-63
2023/01/16 03:49:47;;;;;;;7.28;1.50;;;7.60;74.70;;;;;;5113042;28;20038;-63
2023/01/16 03:52:17;;;;;;;6.15;1.80;;;7.60;74.80;;;;;;5127272;27;20086;-64
2023/01/16 03:54:50;;;;;;;4.15;1.58;;;7.60;74.80;;;;;;5106622;28;20371;-63
2023/01/16 03:57:21;;;;;;;7.55;1.90;;;7.60;74.80;;;;;;5111648;28;20110;-63
2023/01/16 03:59:49;;;;;;;5.38;1.50;;;7.50;74.80;;;;;;5109667;28;20028;-64
2023/01/16 04:02:31;;;;;;;3.23;1.20;;;7.50;74.70;;;;;;5116279;28;20408;-64
2023/01/16 04:05:14;;;;;;;6.35;1.75;;;7.50;74.70;;;;;;5115617;28;20031;-63
2023/01/16 04:07:51;;;;;;;6.73;1.47;;;7.50;74.70;;;;;;5102179;28;20459;-63
2023/01/16 04:10:21;;;;;;;8.20;1.70;;;7.50;74.80;;;;;;5112362;28;20049;-64
2023/01/16 04:12:54;;;;;;;4.57;1.23;;;7.50;74.80;;;;;;5102400;28;20344;-63
2023/01/16 04:15:23;;;;;;;6.43;1.65;;;7.50;74.80;;;;;;5114376;28;20024;-63
2023/01/16 04:17:50;;;;;;;6.43;1.60;;;7.50;74.80;;;;;;5101444;28;20044;-63
2023/01/16 04:20:16;;;;;;;5.00;1.67;;;7.50;74.80;;;;;;5092168;28;20026;-64
2023/01/16 04:22:48;;;;;;;8.18;2.13;;;7.50;74.80;;;;;;5112626;28;20114;-63
2023/01/16 04:25:15;;;;;;;3.33;1.50;;;7.40;74.70;;;;;;5095870;28;20028;-64
2023/01/16 04:27:41;;;;;;;4.45;1.58;;;7.40;74.80;;;;;;5101787;28;20446;-64
2023/01/16 04:30:08;;;;;;;6.23;1.77;;;7.40;74.80;;;;;;5111514;28;20118;-63
2023/01/16 04:32:33;;;;;;;3.60;1.10;;;7.40;74.70;;;;;;5113440;28;20038;-63
2023/01/16 04:34:59;;;;;;;6.90;1.63;;;7.40;74.70;;;;;;5106750;28;20015;-64
2023/01/16 04:37:25;;;;;;;6.13;1.73;;;7.40;74.70;;;;;;5115878;28;20420;-64
2023/01/16 04:39:52;;;;;;;6.65;1.65;;;7.40;74.80;;;;;;5100008;28;20101;-63
2023/01/16 04:42:18;;;;;;;5.10;1.55;;;7.40;74.80;;;;;;5102193;28;20499;-63
2023/01/16 04:44:44;;;;;;;6.50;1.80;;;7.40;74.90;;;;;;5112506;28;20106;-63
2023/01/16 04:47:11;;;;;;;8.30;1.95;;;7.40;74.90;;;;;;5100553;28;20023;-63
2023/01/16 04:49:36;;;;;;;7.78;1.80;;;7.40;74.80;;;;;;5112598;28;20081;-63
2023/01/16 04:52:03;;;;;;;6.23;1.60;;;7.40;74.80;;;;;;5114534;28;20070;-63
2023/01/16 04:54:29;;;;;;;6.63;1.83;;;7.40;74.90;;;;;;5112899;28;20076;-63
2023/01/16 04:56:54;;;;;;;5.60;1.90;;;7.40;74.80;;;;;;5113252;28;20355;-63
2023/01/16 04:59:20;;;;;;;6.55;1.80;;;7.40;74.80;;;;;;5113709;28;20028;-64
2023/01/16 05:01:46;;;;;;;8.38;1.85;;;7.40;74.90;;;;;;5095962;28;20032;-64
2023/01/16 05:04:14;;;;;;;8.20;1.60;;;7.40;75.00;;;;;;5112318;28;20353;-64
2023/01/16 05:06:41;;;;;;;9.45;2.97;;;7.40;74.90;;;;;;5106091;28;20036;-63
2023/01/16 05:09:07;;;;;;;8.75;2.47;;;7.30;74.90;;;;;;5114974;28;20015;-64
2023/01/16 05:11:33;;;;;;;8.63;2.67;;;7.40;75.00;;;;;;5113131;28;20037;-63
2023/01/16 05:14:00;;;;;;;7.65;2.83;;;7.40;75.00;;;;;;5113349;28;20098;-63
2023/01/16 05:16:26;;;;;;;10.07;2.75;;;7.40;75.00;;;;;;5110853;28;20027;-63
2023/01/16 05:18:52;;;;;;;6.85;2.63;;;7.40;75.00;;;;;;5096122;28;20035;-63
2023/01/16 05:21:18;;;;;;;5.97;1.95;;;7.30;75.10;;;;;;5111308;28;20444;-63
2023/01/16 05:23:44;;;;;;;5.93;2.30;;;7.30;75.20;;;;;;5114660;28;20023;-63
2023/01/16 05:26:09;;;;;;;7.30;2.53;;;7.30;75.20;;;;;;5111786;28;20364;-63
2023/01/16 05:28:36;;;;;;;9.98;2.97;;;7.30;75.20;;;;;;5112277;28;20024;-63
2023/01/16 05:31:02;;;;;;;5.17;2.03;;;7.40;75.20;;;;;;5094338;28;20043;-63
2023/01/16 05:33:29;;;;;;;5.82;2.60;;;7.40;75.10;;;;;;5112521;28;20020;-64
2023/01/16 05:35:55;;;;;;;7.80;2.28;;;7.40;75.10;;;;;;5114382;28;20023;-63
2023/01/16 05:38:21;;;;;;;7.18;2.10;;;7.40;75.10;;;;;;5112118;28;20027;-63
2023/01/16 05:40:47;;;;;;;6.35;1.98;;;7.40;75.10;;;;;;5107981;28;20031;-64
2023/01/16 05:43:14;;;;;;;10.63;2.28;;;7.40;75.20;;;;;;5114577;27;20043;-63
2023/01/16 05:45:40;;;;;;;5.78;1.75;;;7.30;75.10;;;;;;5103243;28;20482;-63
2023/01/16 05:48:06;;;;;;;7.20;1.90;;;7.30;75.10;;;;;;5109248;28;20042;-63
2023/01/16 05:50:32;;;;;;;7.20;2.17;;;7.30;75.20;;;;;;5112001;28;20024;-63
2023/01/16 05:52:58;;;;;;;5.00;1.80;;;7.30;75.30;;;;;;5107433;28;20096;-64
2023/01/16 05:55:24;;;;;;;6.57;1.90;;;7.40;75.30;;;;;;5113767;28;20073;-63
2023/01/16 05:57:50;;;;;;;4.47;1.45;;;7.40;75.30;;;;;;5107989;28;20031;-63
2023/01/16 06:00:17;;;;;;;3.72;1.55;;;7.40;75.20;;;;;;5106665;28;20020;-63
2023/01/16 06:02:42;;;;;;;5.10;1.50;;;7.40;75.10;;;;;;5084550;28;20107;-63
2023/01/16 06:05:09;;;;;;;3.63;1.40;;;7.40;75.10;;;;;;5106676;28;20061;-63
2023/01/16 06:07:35;;;;;;;4.30;1.30;;;7.40;75.00;;;;;;5109118;28;20033;-63
2023/01/16 06:10:01;;;;;;;5.70;1.47;;;7.50;75.10;;;;;;5102559;28;20031;-63
2023/01/16 06:12:26;;;;;;;7.03;1.60;;;7.50;75.00;;;;;;5107763;28;20024;-63
2023/01/16 06:14:52;;;;;;;5.85;1.65;;;7.40;75.00;;;;;;5101878;28;20372;-63
2023/01/16 06:17:19;;;;;;;4.53;1.50;;;7.40;75.00;;;;;;5103151;28;20037;-63
2023/01/16 06:19:45;;;;;;;4.47;1.20;;;7.40;75.00;;;;;;5108204;28;20023;-63
2023/01/16 06:22:12;;;;;;;5.40;1.63;;;7.40;75.00;;;;;;5112568;28;20034;-64
2023/01/16 06:24:38;;;;;;;4.82;1.35;;;7.40;75.00;;;;;;5110763;28;20024;-63
2023/01/16 06:27:04;;;;;;;6.07;1.73;;;7.40;75.00;;;;;;5104640;28;20028;-63
2023/01/16 06:29:30;;;;;;;6.22;1.75;;;7.40;75.00;;;;;;5107241;28;20047;-64
2023/01/16 06:31:55;;;;;;;5.77;1.60;;;7.40;75.00;;;;;;5112974;28;20371;-63
2023/01/16 06:34:21;;;;;;;4.30;1.43;;;7.40;75.00;;;;;;5101443;28;20365;-63
2023/01/16 06:36:48;;;;;;;4.07;1.40;;;7.40;74.90;;;;;;5111132;28;20019;-63
2023/01/16 06:39:15;;;;;;;5.10;1.40;;;7.40;74.90;;;;;;5112468;28;20355;-63
2023/01/16 06:41:41;;;;;;;4.70;1.30;;;7.40;74.90;;;;;;5111826;28;20027;-63
2023/01/16 06:44:07;;;;;;;5.40;1.47;;;7.40;74.90;;;;;;5111100;28;20512;-64
2023/01/16 06:46:33;;;;;;;3.33;1.00;;;7.30;74.80;;;;;;5102744;28;20082;-63
2023/01/16 06:48:59;;;;;;;5.78;1.30;;;7.30;74.80;;;;;;5111671;28;20037;-63
2023/01/16 06:51:24;;;;;;;4.60;1.23;;;7.30;74.90;;;;;;5115516;28;20102;-63
2023/01/16 06:53:50;;;;;;;4.63;1.30;;;7.30;74.90;;;;;;5114601;28;20035;-63
2023/01/16 06:56:17;;;;;;;3.13;0.87;;;7.30;74.90;;;;;;5095342;28;20020;-63
2023/01/16 06:58:43;;;;;;;5.97;1.17;;;7.30;75.00;;;;;;5107971;28;20012;-63
2023/01/16 07:01:09;;;;;;;3.83;1.10;;;7.30;75.00;;;;;;5114784;28;20118;-63
2023/01/16 07:03:35;;;;;;;5.57;1.35;;;7.30;75.00;;;;;;5097332;28;20548;-64
2023/01/16 07:06:01;;;;;;;4.47;1.33;;;7.30;75.00;;;;;;5115491;28;20027;-64
2023/01/16 07:08:27;;;;;;;5.17;1.63;;;7.40;75.20;;;;;;5117206;28;20020;-63
2023/01/16 07:10:53;;;;;;;5.10;1.40;;;7.40;75.20;;;;;;5103714;28;20666;-63
2023/01/16 07:13:26;;;;;;;7.68;1.85;;;7.50;75.90;;;;;;5096783;28;20023;-64
2023/01/16 07:24:12;;;;;;;6.53;1.80;;;7.40;75.40;;;;;;5094725;28;20438;-65
2023/01/16 07:26:43;;;;;;;7.07;2.35;;;7.40;75.60;;;;;;5103341;28;20031;-65
2023/01/16 07:29:09;;;;;;;9.93;1.90;;;7.40;75.80;;;;;;5108017;28;20023;-65
2023/01/16 07:31:36;;;;;;;7.20;2.35;;;7.40;75.80;;;;;;5107492;28;20433;-65
2023/01/16 07:34:02;;;;;;;9.35;2.42;;;7.40;75.90;;;;;;5101491;28;20081;-66
2023/01/16 07:36:28;;;;;;;8.20;2.70;;;7.40;75.90;;;;;;5105677;28;20028;-66
2023/01/16 07:38:53;;;;;;;7.25;2.30;;;7.30;76.00;;;;;;5107807;28;20024;-64
2023/01/16 07:41:19;;;;;;;6.27;1.90;;;7.30;76.10;;;;;;5102787;28;20027;-64
2023/01/16 07:43:45;;;;;;;6.97;2.20;;;7.40;76.20;;;;;;5106996;28;20027;-65
2023/01/16 07:46:11;;;;;;;8.10;2.20;;;7.30;76.40;;;;;;5100532;28;20352;-65
2023/01/16 07:48:38;;;;;;;6.53;2.10;;;7.30;76.50;;;;;;5099830;28;20042;-65
2023/01/16 07:51:04;;;;;;;5.57;1.85;;;7.30;76.50;;;;;;5102742;28;20038;-65
2023/01/16 07:53:30;;;;;;;5.63;2.03;;;7.40;76.60;;;;;;5106741;28;20057;-64
2023/01/16 07:55:59;;;;;;;6.17;2.23;;;7.30;76.60;;;;;;5101510;28;20027;-64
2023/01/16 07:58:27;;;;;;;5.50;2.03;;;7.30;76.70;;;;;;5099465;28;20020;-64
2023/01/16 08:00:53;;;;;;;4.47;1.60;;;7.40;76.80;;;;;;5092802;28;20024;-65
2023/01/16 08:03:19;;;;;;;6.77;1.80;;;7.40;76.80;;;;;;5103718;28;20015;-65
2023/01/16 08:05:46;;;;;;;11.27;2.53;;;7.40;77.10;;;;;;5107492;28;20023;-64
2023/01/16 08:08:12;;;;;;;6.37;1.67;;;7.30;76.90;;;;;;5109562;28;20038;-65
2023/01/16 08:10:38;;;;;;;5.27;1.57;;;7.30;77.00;;;;;;5105109;27;20055;-64
2023/01/16 08:13:05;;;;;;;5.27;1.40;;;7.30;77.10;;;;;;5095490;28;20054;-65
2023/01/16 08:15:30;;;;;;;6.37;1.60;;;7.30;77.10;;;;;;5105591;28;20051;-65
2023/01/16 08:17:56;;;;;;;5.50;1.48;;;7.30;77.20;;;;;;5115756;27;20407;-63
2023/01/16 08:20:25;;;;;;;4.27;1.30;;;7.30;77.20;;;;;;5106741;27;20031;-63
2023/01/16 08:22:51;;;;;;;4.15;1.45;;;7.30;77.30;;;;;;5097056;27;20393;-64
2023/01/16 08:25:19;;;;;;;3.65;1.17;;;7.30;77.30;;;;;;5111089;27;20297;-65
2023/01/16 08:27:45;;;;;;;3.97;1.37;;;7.40;77.30;;;;;;5098496;28;20036;-65
2023/01/16 08:30:14;;;;;;;5.97;1.53;;;7.40;77.40;;;;;;5105057;27;20044;-64
2023/01/16 08:32:41;;;;;;;3.95;1.42;;;7.30;77.40;;;;;;5101178;27;20518;-65
2023/01/16 08:35:07;;;;;;;7.05;1.30;;;7.30;77.50;;;;;;5106806;27;20019;-65
2023/01/16 08:37:33;;;;;;;5.43;1.45;;;7.40;77.60;;;;;;5098366;28;20035;-65
2023/01/16 08:39:59;;;;;;;4.63;1.55;;;7.40;77.50;;;;;;5110498;27;20036;-65
2023/01/16 08:53:29;;;;;;;4.03;1.17;;;7.30;77.50;;;;;;5100350;27;20020;-68
2023/01/16 08:55:55;;;;;;;6.77;1.50;;;7.40;77.60;;;;;;5095028;28;20370;-67
2023/01/16 08:58:21;;;;;;;4.63;1.50;;;7.30;77.60;;;;;;5103107;27;20024;-67
2023/01/16 09:00:47;;;;;;;4.95;1.60;;;7.40;77.70;;;;;;5099286;27;20028;-67
2023/01/16 09:03:15;;;;;;;4.30;1.60;;;7.40;77.80;;;;;;5102047;27;20116;-68
2023/01/16 09:05:41;;;;;;;4.28;1.20;;;7.40;77.80;;;;;;5084244;28;20078;-67
2023/01/16 09:08:08;;;;;;;4.70;1.60;;;7.40;77.80;;;;;;5101379;27;20071;-67
2023/01/16 09:10:33;;;;;;;5.47;1.83;;;7.40;77.80;;;;;;5122756;27;20443;-67
2023/01/16 09:15:43;;;;;;;4.87;1.50;;;7.50;77.70;;;;;;5108224;27;20051;-67
2023/01/16 09:18:09;;;;;;;3.67;1.60;;;7.50;77.70;;;;;;5103605;27;20019;-67
2023/01/16 09:20:34;;;;;;;5.43;1.43;;;7.50;77.70;;;;;;5081871;28;20008;-67
2023/01/16 09:23:02;;;;;;;5.72;1.80;;;7.50;77.80;;;;;;5099204;27;20419;-68
2023/01/16 09:25:29;;;;;;;5.07;2.10;;;7.50;77.90;;;;;;5098129;28;20043;-68
2023/01/16 09:27:55;;;;;;;7.73;1.87;;;7.50;77.90;;;;;;5101098;27;20035;-67
2023/01/16 09:30:21;;;;;;;4.45;1.80;;;7.50;77.80;;;;;;5105248;27;20044;-68
2023/01/16 09:32:47;;;;;;;6.30;2.10;;;7.50;77.80;;;;;;5101014;28;20035;-67
2023/01/16 09:35:14;;;;;;;5.55;1.90;;;7.50;77.80;;;;;;5103960;27;20028;-68
2023/01/16 09:37:42;;;;;;;5.32;2.08;;;7.60;77.90;;;;;;5094557;28;20020;-66
2023/01/16 09:40:17;;;;;;;8.43;2.83;;;7.60;77.80;;;;;;5106731;27;20355;-67
2023/01/16 09:45:43;;;;;;;6.28;2.10;;;7.50;77.90;;;;;;5099894;28;20028;-68
2023/01/16 09:48:37;;;;;;;5.63;2.07;;;7.50;77.90;;;;;;5107513;28;20093;-68
2023/01/16 09:51:09;;;;;;;7.20;2.80;;;7.60;78.00;;;;;;5089359;28;20029;-68
2023/01/16 09:59:46;;;;;;;4.20;1.63;;;7.60;78.10;;;;;;5104704;28;20532;-68
2023/01/16 10:02:27;;;;;;;4.23;1.93;;;7.60;78.00;;;;;;5082601;28;20190;-69
2023/01/16 10:04:54;;;;;;;5.23;1.70;;;7.60;78.10;;;;;;5109517;28;20031;-69
2023/01/16 10:07:38;;;;;;;4.07;1.75;;;7.60;78.10;;;;;;5108076;28;20027;-71
2023/01/16 10:10:55;;;;;;;3.40;1.60;;;7.60;78.10;;;;;;5102669;28;20032;-69
2023/01/16 10:13:32;;;;;;;3.55;1.60;;;7.60;78.10;;;;;;5068212;28;20445;-69
2023/01/16 10:16:16;;;;;;;4.10;1.60;;;7.60;78.20;;;;;;5100552;28;20507;-69
2023/01/16 10:18:57;;;;;;;5.43;1.60;;;7.60;78.20;;;;;;5112715;28;20055;-69
2023/01/16 10:21:54;;;;;;;4.82;1.40;;;7.60;78.20;;;;;;5104271;28;20058;-68
2023/01/16 10:24:25;;;;;;;2.63;1.40;;;7.60;78.30;;;;;;5115844;28;20038;-68
2023/01/16 10:27:00;;;;;;;4.68;1.85;;;7.60;78.40;;;;;;5110255;28;20058;-68
2023/01/16 10:29:31;;;;;;;2.93;1.27;;;7.50;78.40;;;;;;5110687;28;20464;-68
2023/01/16 10:32:00;;;;;;;;;;;7.60;78.40;;;;;;5111636;28;20031;-68
2023/01/16 10:34:35;;;;;;;5.57;1.83;;;7.60;78.30;;;;;;5111197;28;20011;-68
2023/01/16 10:37:02;;;;;;;5.40;1.30;;;7.50;78.30;;;;;;5099661;28;20036;-68
2023/01/16 10:39:35;;;;;;;3.72;1.58;;;7.50;78.40;;;;;;5108529;28;20024;-69
2023/01/16 10:50:46;;;;;;;4.35;1.35;;;7.50;78.40;;;;;;5115598;28;20467;-68
2023/01/16 10:53:12;;;;;;;3.97;1.27;;;7.50;78.40;;;;;;5116972;28;20039;-68
2023/01/16 10:55:41;;;;;;;4.13;1.40;;;7.60;78.50;;;;;;5117869;28;20020;-68
2023/01/16 10:58:27;;;;;;;2.87;1.40;;;7.60;78.60;;;;;;5116017;28;20023;-68
2023/01/16 11:01:03;;;;;;;1.97;1.00;;;7.60;78.40;;;;;;5120070;27;20059;-68
2023/01/16 11:03:40;;;;;;;2.30;1.10;;;7.60;78.50;;;;;;5116723;28;20011;-68
2023/01/16 11:06:07;;;;;;;2.05;1.10;;;7.60;78.40;;;;;;5115103;28;20519;-68
2023/01/16 11:08:34;;;;;;;2.87;1.20;;;7.70;78.50;;;;;;5115883;28;20105;-68
2023/01/16 11:11:00;;;;;;;5.87;1.20;;;7.60;78.50;;;;;;5115876;28;20111;-69
2023/01/16 11:19:22;;;;;;;3.67;1.30;;;7.60;78.50;;;;;;5116437;28;20070;-68
2023/01/16 11:21:54;;;;;;;1.95;1.27;;;7.60;78.50;;;;;;5116042;28;20027;-68
2023/01/16 11:24:35;;;;;;;2.67;1.00;;;7.60;78.50;;;;;;5094645;28;20421;-68
2023/01/16 11:27:05;;;;;;;2.33;1.02;;;7.70;78.50;;;;;;5108062;28;20020;-68
2023/01/16 11:29:38;;;;;;;1.70;1.00;;;7.70;78.50;;;;;;5110460;28;20032;-69
2023/01/16 11:32:08;;;;;;;2.00;0.90;;;7.70;78.60;;;;;;5111757;28;20028;-69
2023/01/16 11:34:36;;;;;;;3.97;1.30;;;7.80;78.50;;;;;;5109214;28;20031;-68
2023/01/16 11:37:04;;;;;;;1.80;0.77;;;7.80;78.50;;;;;;5098455;28;20105;-68
2023/01/16 11:39:34;;;;;;;2.20;1.00;;;7.90;78.40;;;;;;5109334;28;20341;-68
2023/01/16 11:47:41;;;;;;;2.22;0.80;;;8.20;77.80;;;;;;5117120;28;20032;-69
2023/01/16 11:50:31;;;;;;;1.70;0.82;;;8.20;77.60;;;;;;5115689;28;20067;-68
2023/01/16 11:52:57;;;;;;;3.10;1.10;;;8.20;77.50;;;;;;5094888;28;20067;-68
2023/01/16 11:55:35;;;;;;;1.58;0.90;;;8.20;77.50;;;;;;5115053;28;20028;-68
2023/01/16 11:58:19;;;;;;;3.08;1.30;;;8.20;77.50;;;;;;5114324;28;20038;-68
2023/01/16 12:01:06;;;;;;;3.35;1.15;;;8.20;77.50;;;;;;5113859;28;20514;-68
2023/01/16 12:03:38;;;;;;;4.50;1.10;;;8.10;77.60;;;;;;5106983;28;20554;-68
2023/01/16 12:06:24;;;;;;;3.88;1.08;;;8.10;77.70;;;;;;5096948;28;20348;-68
2023/01/16 12:09:15;;;;;;;4.03;1.20;;;8.10;77.60;;;;;;5113669;28;20133;-68
2023/01/16 12:11:48;;;;;;;;;;;8.10;77.60;;;;;;5122339;27;20055;-69
2023/01/16 12:14:29;;;;;;;4.90;1.35;;;8.20;77.70;;;;;;5114106;28;20302;-68
2023/01/16 12:17:16;;;;;;;3.33;1.23;;;8.20;77.60;;;;;;5110490;27;20059;-70
2023/01/16 12:19:45;;;;;;;3.03;1.40;;;8.20;77.40;;;;;;5112264;28;20024;-69
2023/01/16 12:22:18;;;;;;;5.10;1.42;;;8.20;77.30;;;;;;5113775;28;20032;-68
2023/01/16 12:25:00;;;;;;;2.67;1.13;;;8.30;77.30;;;;;;5111449;28;20027;-68
2023/01/16 12:27:51;;;;;;;2.75;1.05;;;8.30;77.20;;;;;;5111536;28;20030;-67
2023/01/16 12:30:31;;;;;;;3.10;0.98;;;8.30;77.10;;;;;;5112529;28;20328;-68
2023/01/16 12:33:44;;;;;;;5.55;1.23;;;8.30;77.20;;;;;;5113459;28;20101;-68
2023/01/16 12:36:43;;;;;;;2.03;1.00;;;8.30;77.20;;;;;;5108992;28;20380;-68
2023/01/16 12:39:48;;;;;;;2.28;0.90;;;8.30;77.20;;;;;;5110551;28;20213;-69
2023/01/16 12:45:19;;;;;;;2.88;1.13;;;8.30;77.10;;;;;;5109485;28;20038;-68
2023/01/16 12:48:22;;;;;;;2.42;0.90;;;8.30;77.10;;;;;;5112631;28;20035;-68
2023/01/16 12:51:10;;;;;;;3.25;1.00;;;8.30;77.80;;;;;;5112379;28;20501;-68
2023/01/16 12:54:09;;;;;;;2.10;1.00;;;8.30;77.30;;;;;;5113728;28;20106;-68
2023/01/16 12:56:45;;;;;;;2.03;0.85;;;8.30;77.30;;;;;;5110875;28;20114;-68
2023/01/16 12:59:28;;;;;;;3.80;1.20;;;8.30;77.30;;;;;;5111343;28;20030;-69
2023/01/16 13:02:12;;;;;;;1.27;0.90;;;8.40;77.10;;;;;;5113626;28;20031;-68
2023/01/16 13:05:00;;;;;;;3.30;1.00;;;8.40;77.70;;;;;;5113823;28;20348;-68
2023/01/16 13:07:31;;;;;;;1.70;0.98;;;8.40;76.80;;;;;;5112028;28;20473;-68
2023/01/16 13:15:46;;;;;;;2.78;0.90;;;8.50;76.60;;;;;;5110357;28;20037;-69
2023/01/16 13:18:19;;;;;;;3.22;0.93;;;8.50;76.50;;;;;;5108324;28;20020;-68
2023/01/16 13:20:54;;;;;;;3.15;1.20;;;8.50;76.50;;;;;;5125975;27;20341;-68
2023/01/16 13:23:27;;;;;;;2.15;0.80;;;8.50;76.50;;;;;;5118648;27;20039;-68
2023/01/16 13:25:59;;;;;;;4.13;1.08;;;8.50;76.50;;;;;;5111129;28;20031;-68
2023/01/16 13:28:36;;;;;;;3.10;1.00;;;8.40;76.60;;;;;;5110413;28;20420;-68
2023/01/16 13:31:07;;;;;;;2.30;0.93;;;8.40;76.50;;;;;;5113147;28;20066;-68
2023/01/16 13:33:39;;;;;;;3.55;1.15;;;8.50;76.60;;;;;;5113207;28;20066;-68
2023/01/16 13:36:21;;;;;;;3.05;1.20;;;8.50;76.60;;;;;;5108567;28;20039;-69
2023/01/16 13:38:56;;;;;;;;;;;8.50;76.50;;;;;;5108771;28;20028;-68
2023/01/16 13:41:35;;;;;;;2.33;0.90;;;8.50;76.60;;;;;;5113071;28;19907;-69
2023/01/16 13:47:11;;;;;;;1.60;0.82;;;8.40;76.60;;;;;;5109189;28;20024;-69
2023/01/16 13:49:38;;;;;;;4.00;1.08;;;8.40;76.60;;;;;;5091162;28;20431;-69
2023/01/16 13:52:12;;;;;;;2.53;0.90;;;8.40;77.30;;;;;;5111797;28;20114;-69
2023/01/16 13:54:45;;;;;;;2.95;1.08;;;8.40;76.70;;;;;;5105758;28;20069;-69
2023/01/16 13:57:21;;;;;;;1.70;0.68;;;8.40;76.60;;;;;;5107458;28;20020;-69
2023/01/16 13:59:53;;;;;;;3.55;1.20;;;8.40;76.50;;;;;;5118628;28;20102;-68
2023/01/16 14:02:25;;;;;;;2.22;0.85;;;8.40;76.50;;;;;;5117541;28;20035;-68
2023/01/16 14:05:12;;;;;;;1.77;0.93;;;8.40;76.60;;;;;;5132670;27;20037;-69
2023/01/16 14:11:03;;;;;;;2.50;0.98;;;8.40;76.60;;;;;;5118049;28;20031;-69
2023/01/16 14:13:37;;;;;;;2.78;1.00;;;8.30;76.40;;;;;;5119394;28;20096;-69
2023/01/16 14:16:30;;;;;;;1.92;0.88;;;8.30;76.60;;;;;;5117294;28;20066;-67
2023/01/16 14:18:56;;;;;;;0.93;0.77;;;8.30;76.70;;;;;;5115556;27;20027;-69
2023/01/16 14:21:26;;;;;;;2.63;0.98;;;8.20;76.70;;;;;;5114636;28;20503;-68
2023/01/16 14:24:01;;;;;;;1.55;1.00;;;8.20;76.90;;;;;;5099379;28;20058;-69
2023/01/16 14:26:44;;;;;;;1.65;1.10;;;8.20;76.90;;;;;;5110903;27;20011;-69
2023/01/16 14:29:23;;;;;;;1.63;1.00;;;8.20;77.00;;;;;;5114089;27;20072;-71
2023/01/16 14:32:19;;;;;;;2.70;1.10;;;8.20;77.00;;;;;;5116475;28;20039;-71